sensor_id;sensor_type;location;lat;lon;timestamp;pressure;altitude;pressure_sealevel;temperature
69435;BMP180;56625;54.322;18.582;2022-11-25T00:01:28;100847.20;;;2.10
69435;BMP180;56625;54.322;18.582;2022-11-25T00:03:58;100851.40;;;2.18
69435;BMP180;56625;54.322;18.582;2022-11-25T00:06:29;100853.60;;;2.20
69435;BMP180;56625;54.322;18.582;2022-11-25T00:08:59;100854.80;;;2.14
69435;BMP180;56625;54.322;18.582;2022-11-25T00:11:26;100851.20;;;2.12
69435;BMP180;56625;54.322;18.582;2022-11-25T00:13:55;100846.60;;;2.10
69435;BMP180;56625;54.322;18.582;2022-11-25T00:16:24;100845.20;;;2.00
69435;BMP180;56625;54.322;18.582;2022-11-25T00:18:56;100846.40;;;2.10
69435;BMP180;56625;54.322;18.582;2022-11-25T00:21:27;100850.60;;;2.20
69435;BMP180;56625;54.322;18.582;2022-11-25T00:24:01;100854.20;;;2.26
69435;BMP180;56625;54.322;18.582;2022-11-25T00:26:30;100855.60;;;2.30
69435;BMP180;56625;54.322;18.582;2022-11-25T00:29:03;100859.60;;;2.30
69435;BMP180;56625;54.322;18.582;2022-11-25T00:31:34;100866.60;;;2.30
69435;BMP180;56625;54.322;18.582;2022-11-25T00:34:02;100862.60;;;2.30
69435;BMP180;56625;54.322;18.582;2022-11-25T00:36:32;100862.60;;;2.30
69435;BMP180;56625;54.322;18.582;2022-11-25T00:39:03;100860.40;;;2.30
69435;BMP180;56625;54.322;18.582;2022-11-25T00:41:31;100857.60;;;2.30
69435;BMP180;56625;54.322;18.582;2022-11-25T00:44:18;100865.80;;;2.20
69435;BMP180;56625;54.322;18.582;2022-11-25T00:47:13;100867.40;;;2.30
69435;BMP180;56625;54.322;18.582;2022-11-25T00:49:43;100870.20;;;2.30
69435;BMP180;56625;54.322;18.582;2022-11-25T00:52:15;100872.00;;;2.24
69435;BMP180;56625;54.322;18.582;2022-11-25T00:54:42;100876.80;;;2.20
69435;BMP180;56625;54.322;18.582;2022-11-25T00:57:11;100879.00;;;2.10
69435;BMP180;56625;54.322;18.582;2022-11-25T00:59:39;100879.40;;;2.10
69435;BMP180;56625;54.322;18.582;2022-11-25T01:02:06;100880.80;;;2.10
69435;BMP180;56625;54.322;18.582;2022-11-25T01:04:33;100889.00;;;2.04
69435;BMP180;56625;54.322;18.582;2022-11-25T01:07:01;100890.00;;;2.10
69435;BMP180;56625;54.322;18.582;2022-11-25T01:09:28;100886.60;;;2.00
69435;BMP180;56625;54.322;18.582;2022-11-25T01:11:55;100888.60;;;1.90
69435;BMP180;56625;54.322;18.582;2022-11-25T01:14:22;100891.40;;;1.80
69435;BMP180;56625;54.322;18.582;2022-11-25T01:16:50;100891.40;;;1.78
69435;BMP180;56625;54.322;18.582;2022-11-25T01:19:18;100890.00;;;1.60
69435;BMP180;56625;54.322;18.582;2022-11-25T01:21:45;100887.00;;;1.60
69435;BMP180;56625;54.322;18.582;2022-11-25T01:24:14;100893.40;;;1.60
69435;BMP180;56625;54.322;18.582;2022-11-25T01:26:43;100894.80;;;1.60
69435;BMP180;56625;54.322;18.582;2022-11-25T01:29:17;100892.00;;;1.70
69435;BMP180;56625;54.322;18.582;2022-11-25T01:31:46;100888.20;;;1.80
69435;BMP180;56625;54.322;18.582;2022-11-25T01:34:18;100891.00;;;1.80
69435;BMP180;56625;54.322;18.582;2022-11-25T01:36:46;100890.80;;;1.80
69435;BMP180;56625;54.322;18.582;2022-11-25T01:39:24;100894.40;;;1.70
69435;BMP180;56625;54.322;18.582;2022-11-25T01:42:00;100901.80;;;1.76
69435;BMP180;56625;54.322;18.582;2022-11-25T01:44:29;100898.20;;;1.80
69435;BMP180;56625;54.322;18.582;2022-11-25T01:47:14;100897.00;;;1.70
69435;BMP180;56625;54.322;18.582;2022-11-25T01:50:00;100901.80;;;1.70
69435;BMP180;56625;54.322;18.582;2022-11-25T01:52:35;100899.20;;;1.60
69435;BMP180;56625;54.322;18.582;2022-11-25T01:55:13;100906.60;;;1.60
69435;BMP180;56625;54.322;18.582;2022-11-25T01:57:53;100909.00;;;1.60
69435;BMP180;56625;54.322;18.582;2022-11-25T02:00:21;100904.00;;;1.60
69435;BMP180;56625;54.322;18.582;2022-11-25T02:02:54;100906.00;;;1.58
69435;BMP180;56625;54.322;18.582;2022-11-25T02:05:52;100907.40;;;1.48
69435;BMP180;56625;54.322;18.582;2022-11-25T02:08:19;100906.80;;;1.50
69435;BMP180;56625;54.322;18.582;2022-11-25T02:10:46;100904.00;;;1.58
69435;BMP180;56625;54.322;18.582;2022-11-25T02:13:14;100902.20;;;1.60
69435;BMP180;56625;54.322;18.582;2022-11-25T02:15:41;100907.00;;;1.70
69435;BMP180;56625;54.322;18.582;2022-11-25T02:18:08;100911.20;;;1.68
69435;BMP180;56625;54.322;18.582;2022-11-25T02:20:38;100908.60;;;1.70
69435;BMP180;56625;54.322;18.582;2022-11-25T02:25:52;100910.80;;;1.70
69435;BMP180;56625;54.322;18.582;2022-11-25T02:28:24;100907.00;;;1.70
69435;BMP180;56625;54.322;18.582;2022-11-25T02:30:52;100915.00;;;1.60
69435;BMP180;56625;54.322;18.582;2022-11-25T02:33:20;100913.60;;;1.60
69435;BMP180;56625;54.322;18.582;2022-11-25T02:38:42;100916.40;;;1.50
69435;BMP180;56625;54.322;18.582;2022-11-25T02:41:39;100918.80;;;1.70
69435;BMP180;56625;54.322;18.582;2022-11-25T02:44:06;100920.20;;;1.70
69435;BMP180;56625;54.322;18.582;2022-11-25T02:46:33;100922.20;;;1.80
69435;BMP180;56625;54.322;18.582;2022-11-25T02:49:01;100919.60;;;1.80
69435;BMP180;56625;54.322;18.582;2022-11-25T02:51:40;100918.00;;;1.70
69435;BMP180;56625;54.322;18.582;2022-11-25T02:54:14;100931.60;;;1.56
69435;BMP180;56625;54.322;18.582;2022-11-25T02:56:42;100923.60;;;1.50
69435;BMP180;56625;54.322;18.582;2022-11-25T02:59:10;100922.00;;;1.40
69435;BMP180;56625;54.322;18.582;2022-11-25T03:01:38;100921.00;;;1.30
69435;BMP180;56625;54.322;18.582;2022-11-25T03:04:05;100920.00;;;1.30
69435;BMP180;56625;54.322;18.582;2022-11-25T03:06:32;100922.00;;;1.20
69435;BMP180;56625;54.322;18.582;2022-11-25T03:08:59;100931.00;;;1.26
69435;BMP180;56625;54.322;18.582;2022-11-25T03:11:26;100932.00;;;1.22
69435;BMP180;56625;54.322;18.582;2022-11-25T03:14:11;100937.40;;;1.40
69435;BMP180;56625;54.322;18.582;2022-11-25T03:16:38;100941.60;;;1.38
69435;BMP180;56625;54.322;18.582;2022-11-25T03:19:05;100939.00;;;1.40
69435;BMP180;56625;54.322;18.582;2022-11-25T03:21:31;100947.20;;;1.50
69435;BMP180;56625;54.322;18.582;2022-11-25T03:23:58;100943.40;;;1.68
69435;BMP180;56625;54.322;18.582;2022-11-25T03:26:25;100945.20;;;1.80
69435;BMP180;56625;54.322;18.582;2022-11-25T03:28:52;100945.00;;;1.80
69435;BMP180;56625;54.322;18.582;2022-11-25T03:31:19;100943.40;;;1.86
69435;BMP180;56625;54.322;18.582;2022-11-25T03:33:46;100942.40;;;1.90
69435;BMP180;56625;54.322;18.582;2022-11-25T03:36:13;100946.20;;;1.82
69435;BMP180;56625;54.322;18.582;2022-11-25T03:38:40;100943.40;;;1.90
69435;BMP180;56625;54.322;18.582;2022-11-25T03:41:06;100943.80;;;2.00
69435;BMP180;56625;54.322;18.582;2022-11-25T03:43:33;100949.00;;;2.10
69435;BMP180;56625;54.322;18.582;2022-11-25T03:46:01;100954.00;;;2.24
69435;BMP180;56625;54.322;18.582;2022-11-25T03:48:28;100950.20;;;2.38
69435;BMP180;56625;54.322;18.582;2022-11-25T03:50:55;100955.80;;;2.40
69435;BMP180;56625;54.322;18.582;2022-11-25T03:53:22;100955.20;;;2.54
69435;BMP180;56625;54.322;18.582;2022-11-25T03:55:49;100956.20;;;2.60
69435;BMP180;56625;54.322;18.582;2022-11-25T03:58:15;100957.40;;;2.60
69435;BMP180;56625;54.322;18.582;2022-11-25T04:00:42;100954.00;;;2.58
69435;BMP180;56625;54.322;18.582;2022-11-25T04:03:09;100963.60;;;2.50
69435;BMP180;56625;54.322;18.582;2022-11-25T04:05:36;100959.00;;;2.40
69435;BMP180;56625;54.322;18.582;2022-11-25T04:08:03;100960.40;;;2.32
69435;BMP180;56625;54.322;18.582;2022-11-25T04:10:29;100963.00;;;2.30
69435;BMP180;56625;54.322;18.582;2022-11-25T04:12:56;100964.00;;;2.20
69435;BMP180;56625;54.322;18.582;2022-11-25T04:15:23;100967.00;;;2.10
69435;BMP180;56625;54.322;18.582;2022-11-25T04:17:50;100961.80;;;2.00
69435;BMP180;56625;54.322;18.582;2022-11-25T04:20:16;100967.20;;;1.90
69435;BMP180;56625;54.322;18.582;2022-11-25T04:22:43;100966.00;;;1.78
69435;BMP180;56625;54.322;18.582;2022-11-25T04:25:10;100969.20;;;1.80
69435;BMP180;56625;54.322;18.582;2022-11-25T04:27:37;100977.40;;;1.80
69435;BMP180;56625;54.322;18.582;2022-11-25T04:30:06;100982.80;;;1.80
69435;BMP180;56625;54.322;18.582;2022-11-25T04:32:33;100983.40;;;1.90
69435;BMP180;56625;54.322;18.582;2022-11-25T04:34:59;100987.00;;;1.80
69435;BMP180;56625;54.322;18.582;2022-11-25T04:37:26;100985.80;;;1.60
69435;BMP180;56625;54.322;18.582;2022-11-25T04:39:53;100990.20;;;1.56
69435;BMP180;56625;54.322;18.582;2022-11-25T04:42:19;100994.60;;;1.44
69435;BMP180;56625;54.322;18.582;2022-11-25T04:45:00;101000.80;;;1.40
69435;BMP180;56625;54.322;18.582;2022-11-25T04:47:47;100997.20;;;1.40
69435;BMP180;56625;54.322;18.582;2022-11-25T04:50:19;100999.00;;;1.50
69435;BMP180;56625;54.322;18.582;2022-11-25T04:52:46;100994.80;;;1.60
69435;BMP180;56625;54.322;18.582;2022-11-25T04:55:13;101000.60;;;1.76
69435;BMP180;56625;54.322;18.582;2022-11-25T04:57:40;100996.20;;;1.80
69435;BMP180;56625;54.322;18.582;2022-11-25T05:00:08;100991.40;;;1.90
69435;BMP180;56625;54.322;18.582;2022-11-25T05:02:35;100987.40;;;2.06
69435;BMP180;56625;54.322;18.582;2022-11-25T05:05:03;100982.40;;;2.10
69435;BMP180;56625;54.322;18.582;2022-11-25T05:07:30;100982.40;;;2.10
69435;BMP180;56625;54.322;18.582;2022-11-25T05:09:58;100983.60;;;2.04
69435;BMP180;56625;54.322;18.582;2022-11-25T05:12:27;100986.80;;;2.00
69435;BMP180;56625;54.322;18.582;2022-11-25T05:14:54;100986.00;;;2.00
69435;BMP180;56625;54.322;18.582;2022-11-25T05:17:25;100988.40;;;2.02
69435;BMP180;56625;54.322;18.582;2022-11-25T05:19:53;100991.00;;;2.00
69435;BMP180;56625;54.322;18.582;2022-11-25T05:22:24;100993.00;;;1.98
69435;BMP180;56625;54.322;18.582;2022-11-25T05:24:52;100993.60;;;1.90
69435;BMP180;56625;54.322;18.582;2022-11-25T05:27:20;100993.60;;;1.70
69435;BMP180;56625;54.322;18.582;2022-11-25T05:29:48;100999.20;;;1.60
69435;BMP180;56625;54.322;18.582;2022-11-25T05:32:21;101002.40;;;1.50
69435;BMP180;56625;54.322;18.582;2022-11-25T05:34:48;101003.00;;;1.46
69435;BMP180;56625;54.322;18.582;2022-11-25T05:37:15;101004.80;;;1.40
69435;BMP180;56625;54.322;18.582;2022-11-25T05:39:48;101006.40;;;1.40
69435;BMP180;56625;54.322;18.582;2022-11-25T05:42:15;100998.80;;;1.40
69435;BMP180;56625;54.322;18.582;2022-11-25T05:44:42;101006.60;;;1.40
69435;BMP180;56625;54.322;18.582;2022-11-25T05:47:08;101006.20;;;1.40
69435;BMP180;56625;54.322;18.582;2022-11-25T05:49:35;101006.40;;;1.38
69435;BMP180;56625;54.322;18.582;2022-11-25T05:52:01;101011.80;;;1.36
69435;BMP180;56625;54.322;18.582;2022-11-25T05:54:28;101009.40;;;1.50
69435;BMP180;56625;54.322;18.582;2022-11-25T05:56:54;101010.00;;;1.56
69435;BMP180;56625;54.322;18.582;2022-11-25T05:59:21;101011.20;;;1.60
69435;BMP180;56625;54.322;18.582;2022-11-25T06:01:47;101011.60;;;1.60
69435;BMP180;56625;54.322;18.582;2022-11-25T06:04:14;101011.60;;;1.60
69435;BMP180;56625;54.322;18.582;2022-11-25T06:06:41;101016.80;;;1.60
69435;BMP180;56625;54.322;18.582;2022-11-25T06:09:08;101014.80;;;1.60
69435;BMP180;56625;54.322;18.582;2022-11-25T06:11:34;101014.80;;;1.50
69435;BMP180;56625;54.322;18.582;2022-11-25T06:14:01;101021.00;;;1.50
69435;BMP180;56625;54.322;18.582;2022-11-25T06:16:28;101018.40;;;1.40
69435;BMP180;56625;54.322;18.582;2022-11-25T06:18:55;101018.40;;;1.40
69435;BMP180;56625;54.322;18.582;2022-11-25T06:21:21;101022.60;;;1.40
69435;BMP180;56625;54.322;18.582;2022-11-25T06:23:48;101023.40;;;1.40
69435;BMP180;56625;54.322;18.582;2022-11-25T06:26:20;101024.40;;;1.40
69435;BMP180;56625;54.322;18.582;2022-11-25T06:28:51;101023.00;;;1.40
69435;BMP180;56625;54.322;18.582;2022-11-25T06:31:23;101027.40;;;1.36
69435;BMP180;56625;54.322;18.582;2022-11-25T06:33:52;101030.80;;;1.30
69435;BMP180;56625;54.322;18.582;2022-11-25T06:36:20;101024.20;;;1.30
69435;BMP180;56625;54.322;18.582;2022-11-25T06:38:52;101028.80;;;1.30
69435;BMP180;56625;54.322;18.582;2022-11-25T06:41:22;101030.20;;;1.30
69435;BMP180;56625;54.322;18.582;2022-11-25T06:43:49;101028.40;;;1.30
69435;BMP180;56625;54.322;18.582;2022-11-25T06:46:18;101027.80;;;1.30
69435;BMP180;56625;54.322;18.582;2022-11-25T06:48:54;101021.20;;;1.30
69435;BMP180;56625;54.322;18.582;2022-11-25T06:51:20;101022.60;;;1.20
69435;BMP180;56625;54.322;18.582;2022-11-25T06:53:49;101021.00;;;1.20
69435;BMP180;56625;54.322;18.582;2022-11-25T06:56:21;101026.80;;;1.22
69435;BMP180;56625;54.322;18.582;2022-11-25T06:58:48;101025.20;;;1.26
69435;BMP180;56625;54.322;18.582;2022-11-25T07:01:20;101028.40;;;1.30
69435;BMP180;56625;54.322;18.582;2022-11-25T07:03:53;101026.00;;;1.30
69435;BMP180;56625;54.322;18.582;2022-11-25T07:06:21;101028.20;;;1.30
69435;BMP180;56625;54.322;18.582;2022-11-25T07:08:48;101026.60;;;1.30
69435;BMP180;56625;54.322;18.582;2022-11-25T07:11:23;101029.20;;;1.30
69435;BMP180;56625;54.322;18.582;2022-11-25T07:13:57;101032.20;;;1.52
69435;BMP180;56625;54.322;18.582;2022-11-25T07:16:25;101029.80;;;3.46
69435;BMP180;56625;54.322;18.582;2022-11-25T07:18:52;101035.00;;;3.40
69435;BMP180;56625;54.322;18.582;2022-11-25T07:21:23;101031.60;;;3.20
69435;BMP180;56625;54.322;18.582;2022-11-25T07:23:51;101026.20;;;3.00
69435;BMP180;56625;54.322;18.582;2022-11-25T07:26:24;101032.20;;;2.90
69435;BMP180;56625;54.322;18.582;2022-11-25T07:28:57;101027.60;;;2.90
69435;BMP180;56625;54.322;18.582;2022-11-25T07:31:30;101030.60;;;2.86
69435;BMP180;56625;54.322;18.582;2022-11-25T07:34:07;101038.40;;;2.60
69435;BMP180;56625;54.322;18.582;2022-11-25T07:36:35;101030.60;;;2.50
69435;BMP180;56625;54.322;18.582;2022-11-25T07:39:07;101037.60;;;2.40
69435;BMP180;56625;54.322;18.582;2022-11-25T07:41:34;101035.20;;;2.26
69435;BMP180;56625;54.322;18.582;2022-11-25T07:44:04;101037.40;;;2.18
69435;BMP180;56625;54.322;18.582;2022-11-25T07:46:34;101037.80;;;2.10
69435;BMP180;56625;54.322;18.582;2022-11-25T07:49:06;101042.00;;;2.20
69435;BMP180;56625;54.322;18.582;2022-11-25T07:51:49;101046.40;;;2.28
69435;BMP180;56625;54.322;18.582;2022-11-25T07:54:16;101047.00;;;2.20
69435;BMP180;56625;54.322;18.582;2022-11-25T07:56:43;101043.80;;;2.10
69435;BMP180;56625;54.322;18.582;2022-11-25T07:59:14;101044.40;;;2.00
69435;BMP180;56625;54.322;18.582;2022-11-25T08:01:41;101043.20;;;2.00
69435;BMP180;56625;54.322;18.582;2022-11-25T08:04:12;101045.60;;;2.00
69435;BMP180;56625;54.322;18.582;2022-11-25T08:06:49;101046.00;;;2.10
69435;BMP180;56625;54.322;18.582;2022-11-25T08:09:19;101047.60;;;2.20
69435;BMP180;56625;54.322;18.582;2022-11-25T08:11:48;101043.80;;;2.40
69435;BMP180;56625;54.322;18.582;2022-11-25T08:14:15;101041.40;;;2.50
69435;BMP180;56625;54.322;18.582;2022-11-25T08:16:43;101043.60;;;2.60
69435;BMP180;56625;54.322;18.582;2022-11-25T08:19:13;101044.60;;;2.70
69435;BMP180;56625;54.322;18.582;2022-11-25T08:21:41;101043.00;;;2.60
69435;BMP180;56625;54.322;18.582;2022-11-25T08:24:14;101045.80;;;2.56
69435;BMP180;56625;54.322;18.582;2022-11-25T08:26:41;101049.80;;;2.50
69435;BMP180;56625;54.322;18.582;2022-11-25T08:29:13;101047.00;;;2.40
69435;BMP180;56625;54.322;18.582;2022-11-25T08:31:40;101050.00;;;2.40
69435;BMP180;56625;54.322;18.582;2022-11-25T08:34:20;101052.40;;;2.40
69435;BMP180;56625;54.322;18.582;2022-11-25T08:36:48;101052.60;;;2.40
69435;BMP180;56625;54.322;18.582;2022-11-25T08:39:16;101059.80;;;2.40
69435;BMP180;56625;54.322;18.582;2022-11-25T08:42:05;101062.60;;;2.38
69435;BMP180;56625;54.322;18.582;2022-11-25T08:44:31;101062.60;;;2.30
69435;BMP180;56625;54.322;18.582;2022-11-25T08:46:58;101066.60;;;2.20
69435;BMP180;56625;54.322;18.582;2022-11-25T08:49:26;101064.60;;;2.18
69435;BMP180;56625;54.322;18.582;2022-11-25T08:51:55;101061.60;;;2.10
69435;BMP180;56625;54.322;18.582;2022-11-25T08:54:21;101069.40;;;2.06
69435;BMP180;56625;54.322;18.582;2022-11-25T08:56:48;101069.20;;;2.00
69435;BMP180;56625;54.322;18.582;2022-11-25T08:59:14;101074.80;;;2.06
69435;BMP180;56625;54.322;18.582;2022-11-25T09:01:41;101075.40;;;2.00
69435;BMP180;56625;54.322;18.582;2022-11-25T09:04:08;101076.40;;;2.00
69435;BMP180;56625;54.322;18.582;2022-11-25T09:06:34;101080.40;;;1.96
69435;BMP180;56625;54.322;18.582;2022-11-25T09:09:02;101081.40;;;2.00
69435;BMP180;56625;54.322;18.582;2022-11-25T09:11:31;101084.40;;;2.00
69435;BMP180;56625;54.322;18.582;2022-11-25T09:13:58;101084.00;;;2.00
69435;BMP180;56625;54.322;18.582;2022-11-25T09:16:25;101089.40;;;2.00
69435;BMP180;56625;54.322;18.582;2022-11-25T09:18:53;101090.00;;;2.00
69435;BMP180;56625;54.322;18.582;2022-11-25T09:21:23;101091.40;;;2.00
69435;BMP180;56625;54.322;18.582;2022-11-25T09:23:51;101090.60;;;1.90
69435;BMP180;56625;54.322;18.582;2022-11-25T09:26:26;101090.80;;;1.90
69435;BMP180;56625;54.322;18.582;2022-11-25T09:28:54;101092.80;;;1.90
69435;BMP180;56625;54.322;18.582;2022-11-25T09:31:22;101095.80;;;1.90
69435;BMP180;56625;54.322;18.582;2022-11-25T09:33:49;101095.40;;;2.00
69435;BMP180;56625;54.322;18.582;2022-11-25T09:36:18;101104.20;;;2.00
69435;BMP180;56625;54.322;18.582;2022-11-25T09:38:46;101100.40;;;2.00
69435;BMP180;56625;54.322;18.582;2022-11-25T09:45:19;101108.60;;;2.10
69435;BMP180;56625;54.322;18.582;2022-11-25T09:51:20;101107.00;;;1.98
69435;BMP180;56625;54.322;18.582;2022-11-25T09:53:54;101107.40;;;1.90
69435;BMP180;56625;54.322;18.582;2022-11-25T09:56:35;101104.00;;;1.90
69435;BMP180;56625;54.322;18.582;2022-11-25T10:01:57;101108.00;;;1.90
69435;BMP180;56625;54.322;18.582;2022-11-25T10:08:21;101109.40;;;1.86
69435;BMP180;56625;54.322;18.582;2022-11-25T10:11:06;101111.20;;;1.90
69435;BMP180;56625;54.322;18.582;2022-11-25T10:13:48;101111.20;;;1.86
69435;BMP180;56625;54.322;18.582;2022-11-25T10:16:51;101115.40;;;1.80
69435;BMP180;56625;54.322;18.582;2022-11-25T10:22:29;101117.20;;;1.80
69435;BMP180;56625;54.322;18.582;2022-11-25T10:25:01;101110.80;;;1.90
69435;BMP180;56625;54.322;18.582;2022-11-25T10:27:46;101108.20;;;2.00
69435;BMP180;56625;54.322;18.582;2022-11-25T10:33:23;101109.00;;;1.80
69435;BMP180;56625;54.322;18.582;2022-11-25T10:36:15;101111.00;;;1.74
69435;BMP180;56625;54.322;18.582;2022-11-25T10:41:32;101112.00;;;1.70
69435;BMP180;56625;54.322;18.582;2022-11-25T10:44:02;101110.00;;;1.68
69435;BMP180;56625;54.322;18.582;2022-11-25T10:46:39;101113.40;;;1.70
69435;BMP180;56625;54.322;18.582;2022-11-25T10:52:13;101111.20;;;1.90
69435;BMP180;56625;54.322;18.582;2022-11-25T10:54:40;101104.40;;;1.90
69435;BMP180;56625;54.322;18.582;2022-11-25T10:57:19;101103.40;;;1.98
69435;BMP180;56625;54.322;18.582;2022-11-25T10:59:57;101109.60;;;1.90
69435;BMP180;56625;54.322;18.582;2022-11-25T11:07:40;101109.80;;;1.80
69435;BMP180;56625;54.322;18.582;2022-11-25T11:13:19;101115.60;;;1.78
69435;BMP180;56625;54.322;18.582;2022-11-25T11:15:47;101121.60;;;1.82
69435;BMP180;56625;54.322;18.582;2022-11-25T11:21:06;101117.80;;;2.00
69435;BMP180;56625;54.322;18.582;2022-11-25T11:23:54;101116.00;;;2.00
69435;BMP180;56625;54.322;18.582;2022-11-25T11:26:34;101114.20;;;2.00
69435;BMP180;56625;54.322;18.582;2022-11-25T11:29:15;101110.60;;;1.90
69435;BMP180;56625;54.322;18.582;2022-11-25T11:31:52;101115.40;;;1.82
69435;BMP180;56625;54.322;18.582;2022-11-25T11:34:51;101119.20;;;1.82
69435;BMP180;56625;54.322;18.582;2022-11-25T11:37:42;101114.60;;;1.90
69435;BMP180;56625;54.322;18.582;2022-11-25T11:40:35;101115.20;;;1.90
69435;BMP180;56625;54.322;18.582;2022-11-25T11:55:00;101122.00;;;1.92
69435;BMP180;56625;54.322;18.582;2022-11-25T12:00:31;101135.80;;;2.00
69435;BMP180;56625;54.322;18.582;2022-11-25T12:03:18;101134.80;;;1.90
69435;BMP180;56625;54.322;18.582;2022-11-25T12:05:47;101133.00;;;2.00
69435;BMP180;56625;54.322;18.582;2022-11-25T12:11:12;101138.20;;;2.08
69435;BMP180;56625;54.322;18.582;2022-11-25T12:13:51;101139.00;;;2.10
69435;BMP180;56625;54.322;18.582;2022-11-25T12:16:58;101138.80;;;2.00
69435;BMP180;56625;54.322;18.582;2022-11-25T12:22:27;101144.40;;;1.90
69435;BMP180;56625;54.322;18.582;2022-11-25T12:25:44;101145.40;;;2.00
69435;BMP180;56625;54.322;18.582;2022-11-25T12:28:25;101148.80;;;2.00
69435;BMP180;56625;54.322;18.582;2022-11-25T12:31:22;101150.80;;;2.02
69435;BMP180;56625;54.322;18.582;2022-11-25T12:34:33;101148.80;;;2.10
69435;BMP180;56625;54.322;18.582;2022-11-25T12:37:15;101150.40;;;2.10
69435;BMP180;56625;54.322;18.582;2022-11-25T12:46:03;101161.20;;;2.10
69435;BMP180;56625;54.322;18.582;2022-11-25T12:48:36;101156.60;;;2.10
69435;BMP180;56625;54.322;18.582;2022-11-25T12:51:41;101163.60;;;2.18
69435;BMP180;56625;54.322;18.582;2022-11-25T13:00:27;101168.40;;;2.20
69435;BMP180;56625;54.322;18.582;2022-11-25T13:03:59;101161.60;;;2.20
69435;BMP180;56625;54.322;18.582;2022-11-25T13:10:00;101165.40;;;2.16
69435;BMP180;56625;54.322;18.582;2022-11-25T13:12:48;101161.00;;;2.10
69435;BMP180;56625;54.322;18.582;2022-11-25T13:15:27;101165.60;;;2.20
69435;BMP180;56625;54.322;18.582;2022-11-25T13:18:02;101166.40;;;2.22
69435;BMP180;56625;54.322;18.582;2022-11-25T13:25:47;101163.80;;;2.30
69435;BMP180;56625;54.322;18.582;2022-11-25T13:28:33;101167.80;;;2.30
69435;BMP180;56625;54.322;18.582;2022-11-25T13:36:19;101168.60;;;2.30
69435;BMP180;56625;54.322;18.582;2022-11-25T13:44:03;101168.60;;;2.34
69435;BMP180;56625;54.322;18.582;2022-11-25T13:54:50;101185.80;;;2.30
69435;BMP180;56625;54.322;18.582;2022-11-25T13:57:29;101186.40;;;2.26
69435;BMP180;56625;54.322;18.582;2022-11-25T14:02:47;101186.80;;;2.20
69435;BMP180;56625;54.322;18.582;2022-11-25T14:09:03;101182.80;;;2.00
69435;BMP180;56625;54.322;18.582;2022-11-25T14:12:26;101185.80;;;2.00
69435;BMP180;56625;54.322;18.582;2022-11-25T14:21:57;101190.00;;;1.90
69435;BMP180;56625;54.322;18.582;2022-11-25T14:24:42;101197.00;;;1.90
69435;BMP180;56625;54.322;18.582;2022-11-25T14:27:19;101194.00;;;1.90
69435;BMP180;56625;54.322;18.582;2022-11-25T14:30:03;101197.20;;;2.00
69435;BMP180;56625;54.322;18.582;2022-11-25T14:32:46;101197.20;;;2.10
69435;BMP180;56625;54.322;18.582;2022-11-25T14:35:18;101199.20;;;2.10
69435;BMP180;56625;54.322;18.582;2022-11-25T14:40:23;101199.40;;;2.10
69435;BMP180;56625;54.322;18.582;2022-11-25T14:43:02;101203.60;;;2.08
69435;BMP180;56625;54.322;18.582;2022-11-25T14:45:33;101205.00;;;2.00
69435;BMP180;56625;54.322;18.582;2022-11-25T14:48:20;101202.80;;;2.00
69435;BMP180;56625;54.322;18.582;2022-11-25T14:51:05;101205.40;;;2.00
69435;BMP180;56625;54.322;18.582;2022-11-25T14:53:41;101204.20;;;2.06
69435;BMP180;56625;54.322;18.582;2022-11-25T14:56:31;101203.60;;;2.10
69435;BMP180;56625;54.322;18.582;2022-11-25T14:59:00;101200.60;;;2.20
69435;BMP180;56625;54.322;18.582;2022-11-25T15:01:32;101210.80;;;2.20
69435;BMP180;56625;54.322;18.582;2022-11-25T15:06:40;101210.60;;;2.20
69435;BMP180;56625;54.322;18.582;2022-11-25T15:09:23;101213.20;;;2.20
69435;BMP180;56625;54.322;18.582;2022-11-25T15:12:11;101211.00;;;2.12
69435;BMP180;56625;54.322;18.582;2022-11-25T15:14:55;101219.40;;;2.10
69435;BMP180;56625;54.322;18.582;2022-11-25T15:17:31;101221.80;;;2.10
69435;BMP180;56625;54.322;18.582;2022-11-25T15:20:10;101234.20;;;2.20
69435;BMP180;56625;54.322;18.582;2022-11-25T15:22:44;101231.40;;;2.20
69435;BMP180;56625;54.322;18.582;2022-11-25T15:25:14;101228.60;;;2.20
69435;BMP180;56625;54.322;18.582;2022-11-25T15:27:48;101236.20;;;2.20
69435;BMP180;56625;54.322;18.582;2022-11-25T15:30:23;101235.20;;;2.30
69435;BMP180;56625;54.322;18.582;2022-11-25T15:32:51;101234.40;;;2.40
69435;BMP180;56625;54.322;18.582;2022-11-25T15:35:23;101238.80;;;2.40
69435;BMP180;56625;54.322;18.582;2022-11-25T15:37:50;101238.20;;;2.30
69435;BMP180;56625;54.322;18.582;2022-11-25T15:40:37;101242.40;;;2.30
69435;BMP180;56625;54.322;18.582;2022-11-25T15:43:28;101240.20;;;2.30
69435;BMP180;56625;54.322;18.582;2022-11-25T15:46:03;101241.00;;;2.30
69435;BMP180;56625;54.322;18.582;2022-11-25T15:48:39;101240.40;;;2.30
69435;BMP180;56625;54.322;18.582;2022-11-25T15:56:50;101241.20;;;2.20
69435;BMP180;56625;54.322;18.582;2022-11-25T15:59:46;101235.80;;;2.10
69435;BMP180;56625;54.322;18.582;2022-11-25T16:07:56;101240.00;;;2.00
69435;BMP180;56625;54.322;18.582;2022-11-25T16:10:47;101243.80;;;2.00
69435;BMP180;56625;54.322;18.582;2022-11-25T16:21:41;101245.60;;;2.00
69435;BMP180;56625;54.322;18.582;2022-11-25T16:26:56;101239.20;;;2.10
69435;BMP180;56625;54.322;18.582;2022-11-25T16:29:47;101239.60;;;2.10
69435;BMP180;56625;54.322;18.582;2022-11-25T16:32:20;101240.00;;;2.10
69435;BMP180;56625;54.322;18.582;2022-11-25T16:34:47;101241.80;;;2.10
69435;BMP180;56625;54.322;18.582;2022-11-25T16:37:14;101246.60;;;2.12
69435;BMP180;56625;54.322;18.582;2022-11-25T16:39:41;101252.00;;;2.20
69435;BMP180;56625;54.322;18.582;2022-11-25T16:42:17;101253.80;;;2.30
69435;BMP180;56625;54.322;18.582;2022-11-25T16:44:49;101252.40;;;2.30
69435;BMP180;56625;54.322;18.582;2022-11-25T16:47:21;101259.80;;;2.30
69435;BMP180;56625;54.322;18.582;2022-11-25T16:49:48;101262.20;;;2.30
69435;BMP180;56625;54.322;18.582;2022-11-25T16:52:15;101262.00;;;2.30